Time;durP1;ratioP1;P1;durP2;ratioP2;P2;SDS_P1;SDS_P2;PMS_P1;PMS_P2;Temp;Humidity;BMP_temperature;BMP_pressure;BME280_temperature;BME280_humidity;BME280_pressure;Samples;Min_cycle;Max_cycle;Signal;HPM_P1;HPM_P2
2022/07/01 00:02:27;;;;;;;5.60;1.50;;;16.20;99.90;;;;;;5063750;28;20478;-48
2022/07/01 00:04:54;;;;;;;1.87;1.20;;;16.10;99.90;;;;;;5064382;28;20842;-48
2022/07/01 00:07:21;;;;;;;2.87;1.23;;;16.20;99.90;;;;;;5030048;28;21238;-48
2022/07/01 00:09:47;;;;;;;2.93;1.57;;;16.20;99.90;;;;;;5057147;28;20839;-48
2022/07/01 00:12:14;;;;;;;3.37;1.60;;;16.10;99.90;;;;;;5063862;28;20481;-48
2022/07/01 00:14:41;;;;;;;3.23;1.73;;;16.00;99.90;;;;;;5058955;28;20496;-48
2022/07/01 00:17:08;;;;;;;2.83;2.00;;;16.00;99.90;;;;;;5060344;28;20485;-48
2022/07/01 00:19:36;;;;;;;1.90;1.63;;;16.00;99.90;;;;;;5064067;28;20483;-48
2022/07/01 00:22:03;;;;;;;2.57;1.47;;;16.00;99.90;;;;;;5048179;28;20786;-49
2022/07/01 00:24:30;;;;;;;2.20;2.00;;;15.90;99.90;;;;;;5064293;28;20485;-48
2022/07/01 00:26:57;;;;;;;2.10;1.90;;;15.90;99.90;;;;;;5051382;28;20487;-48
2022/07/01 00:29:23;;;;;;;2.50;1.60;;;15.90;99.90;;;;;;5051301;28;20480;-48
2022/07/01 00:31:50;;;;;;;3.23;1.80;;;16.00;99.90;;;;;;5060642;28;20495;-48
2022/07/01 00:34:17;;;;;;;2.63;1.97;;;16.00;99.90;;;;;;5058283;28;20482;-48
2022/07/01 00:36:45;;;;;;;3.80;1.50;;;16.00;99.90;;;;;;5058287;28;20479;-48
2022/07/01 00:39:11;;;;;;;2.53;1.73;;;16.00;99.90;;;;;;5056715;28;20897;-48
2022/07/01 00:41:38;;;;;;;2.10;1.40;;;16.20;99.90;;;;;;5059201;28;21022;-48
2022/07/01 00:44:05;;;;;;;2.63;1.87;;;16.20;99.90;;;;;;5057138;28;20657;-50
2022/07/01 00:46:33;;;;;;;2.00;1.40;;;16.20;99.90;;;;;;5058598;28;20475;-48
2022/07/01 00:49:01;;;;;;;5.50;1.40;;;16.10;99.90;;;;;;5057218;28;20467;-47
2022/07/01 00:51:29;;;;;;;3.90;1.57;;;16.20;99.90;;;;;;5058649;28;20540;-47
2022/07/01 00:53:58;;;;;;;2.20;1.70;;;16.10;99.90;;;;;;5049036;28;20472;-48
2022/07/01 00:56:25;;;;;;;2.63;2.03;;;16.10;99.90;;;;;;5053084;28;20531;-48
2022/07/01 00:58:52;;;;;;;2.23;2.00;;;16.10;99.90;;;;;;5057749;28;20518;-49
2022/07/01 01:01:20;;;;;;;2.80;2.50;;;16.10;99.90;;;;;;5054311;28;21068;-48
2022/07/01 01:03:47;;;;;;;3.60;2.00;;;16.00;99.90;;;;;;5056806;28;20839;-48
2022/07/01 01:06:14;;;;;;;2.10;1.53;;;16.00;99.90;;;;;;5054196;28;20482;-48
2022/07/01 01:08:41;;;;;;;4.50;1.90;;;15.90;99.90;;;;;;5058417;28;20490;-48
2022/07/01 01:11:09;;;;;;;2.70;2.27;;;15.90;99.90;;;;;;5057038;28;20481;-48
2022/07/01 01:13:35;;;;;;;3.37;2.17;;;15.90;99.90;;;;;;5059241;28;20482;-49
2022/07/01 01:16:02;;;;;;;2.60;2.17;;;15.90;99.90;;;;;;5056003;28;20491;-47
2022/07/01 01:18:29;;;;;;;2.67;2.27;;;15.90;99.90;;;;;;5059066;28;20470;-48
2022/07/01 01:20:57;;;;;;;4.20;1.97;;;15.90;99.90;;;;;;5056018;28;20479;-48
2022/07/01 01:23:24;;;;;;;1.90;1.67;;;15.90;99.90;;;;;;5048431;28;20494;-48
2022/07/01 01:25:51;;;;;;;2.57;1.93;;;15.90;99.90;;;;;;5054314;28;20487;-48
2022/07/01 01:28:18;;;;;;;3.13;1.80;;;15.90;99.90;;;;;;5047775;28;20487;-48
2022/07/01 01:30:44;;;;;;;2.80;2.30;;;15.80;99.90;;;;;;5038768;28;20494;-48
2022/07/01 01:33:12;;;;;;;2.10;1.90;;;15.90;99.90;;;;;;5054484;28;20471;-48
2022/07/01 01:35:39;;;;;;;2.10;1.80;;;15.90;99.90;;;;;;5058313;28;20603;-48
2022/07/01 01:38:07;;;;;;;2.93;2.63;;;15.90;99.90;;;;;;5059827;28;20566;-51
2022/07/01 01:40:33;;;;;;;3.77;2.53;;;15.80;99.90;;;;;;5056577;28;20490;-48
2022/07/01 01:43:00;;;;;;;7.33;2.77;;;15.90;99.90;;;;;;5057402;28;20486;-48
2022/07/01 01:45:28;;;;;;;4.70;2.03;;;15.90;99.90;;;;;;5052894;28;20483;-48
2022/07/01 01:47:54;;;;;;;2.77;2.47;;;15.90;99.90;;;;;;5054238;28;20475;-48
2022/07/01 01:50:21;;;;;;;11.53;2.20;;;15.90;99.90;;;;;;5045609;28;20494;-49
2022/07/01 01:52:48;;;;;;;2.50;2.20;;;15.80;99.90;;;;;;5047321;28;20552;-49
2022/07/01 01:55:16;;;;;;;3.13;2.83;;;15.80;99.90;;;;;;5046852;28;20585;-48
2022/07/01 01:57:43;;;;;;;3.60;1.83;;;15.70;99.90;;;;;;5060658;28;20474;-49
2022/07/01 02:00:11;;;;;;;7.30;3.27;;;15.60;99.90;;;;;;5058080;28;20474;-51
2022/07/01 02:02:37;;;;;;;2.63;2.10;;;15.60;99.90;;;;;;5051230;28;20483;-52
2022/07/01 02:05:05;;;;;;;2.27;2.07;;;15.60;99.90;;;;;;5063820;28;20491;-52
2022/07/01 02:07:31;;;;;;;3.23;1.87;;;15.60;99.90;;;;;;5059241;28;20494;-52
2022/07/01 02:09:58;;;;;;;1.93;1.73;;;15.60;99.90;;;;;;5060240;28;20466;-52
2022/07/01 02:12:26;;;;;;;1.93;1.57;;;15.60;99.90;;;;;;5062561;28;20478;-54
2022/07/01 02:14:53;;;;;;;3.60;1.70;;;15.60;99.90;;;;;;5060902;28;20564;-53
2022/07/01 02:17:19;;;;;;;8.80;3.53;;;15.60;99.90;;;;;;5054577;28;20480;-53
2022/07/01 02:19:46;;;;;;;3.17;1.50;;;15.60;99.90;;;;;;5047702;28;20491;-53
2022/07/01 02:22:12;;;;;;;4.43;1.50;;;15.60;99.90;;;;;;5057098;28;20842;-53
2022/07/01 02:24:39;;;;;;;2.53;1.63;;;15.60;99.90;;;;;;5059835;28;20483;-55
2022/07/01 02:27:06;;;;;;;2.33;2.13;;;15.60;99.90;;;;;;5057070;28;20485;-55
2022/07/01 02:29:34;;;;;;;4.70;1.87;;;15.60;99.90;;;;;;5060024;28;20474;-54
2022/07/01 02:32:01;;;;;;;2.93;2.00;;;15.60;99.90;;;;;;5059650;28;20482;-53
2022/07/01 02:34:28;;;;;;;2.60;2.40;;;15.60;99.90;;;;;;5059808;28;20489;-53
2022/07/01 02:36:55;;;;;;;3.40;1.93;;;15.50;99.90;;;;;;5058282;28;20482;-53
2022/07/01 02:39:22;;;;;;;3.27;2.17;;;15.60;99.90;;;;;;5057792;28;20838;-54
2022/07/01 02:44:35;;;;;;;4.43;2.63;;;15.70;99.90;;;;;;5058258;28;20771;-53
2022/07/01 02:47:02;;;;;;;2.83;2.53;;;15.70;99.90;;;;;;5060441;28;20486;-53
2022/07/01 02:49:28;;;;;;;4.50;3.20;;;15.80;99.90;;;;;;5058791;28;20842;-53
2022/07/01 02:51:55;;;;;;;5.00;3.20;;;15.80;99.90;;;;;;5058358;28;20479;-53
2022/07/01 02:54:21;;;;;;;4.23;3.17;;;15.70;99.90;;;;;;5058370;28;20485;-53
2022/07/01 02:56:48;;;;;;;3.90;2.53;;;15.70;99.90;;;;;;5056590;28;20471;-52
2022/07/01 02:59:15;;;;;;;3.93;3.63;;;15.70;99.90;;;;;;5054228;28;21014;-53
2022/07/01 03:01:43;;;;;;;3.47;2.60;;;15.70;99.90;;;;;;5056150;28;20482;-53
2022/07/01 03:04:09;;;;;;;3.97;3.67;;;15.80;99.90;;;;;;5053601;28;20471;-50
2022/07/01 03:06:36;;;;;;;4.43;3.93;;;15.80;99.90;;;;;;5054672;28;20482;-54
2022/07/01 03:09:03;;;;;;;5.90;3.80;;;15.80;99.90;;;;;;5056971;28;21066;-53
2022/07/01 03:11:30;;;;;;;4.43;3.83;;;15.70;99.90;;;;;;5057352;28;21011;-53
2022/07/01 03:13:56;;;;;;;4.13;3.53;;;15.80;99.90;;;;;;5057637;28;20483;-53
2022/07/01 03:16:23;;;;;;;4.23;3.83;;;15.80;99.90;;;;;;5053783;28;20489;-53
2022/07/01 03:18:51;;;;;;;5.80;4.20;;;15.90;99.90;;;;;;5052133;28;20820;-53
2022/07/01 03:21:18;;;;;;;4.47;4.07;;;15.90;99.90;;;;;;5055545;28;20483;-53
2022/07/01 03:23:44;;;;;;;3.60;3.30;;;15.90;99.90;;;;;;5057080;28;20471;-53
2022/07/01 03:26:11;;;;;;;4.73;4.13;;;16.00;99.90;;;;;;5057421;28;20487;-52
2022/07/01 03:28:38;;;;;;;3.83;3.37;;;16.00;99.90;;;;;;5057130;28;20505;-53
2022/07/01 03:31:04;;;;;;;4.33;3.93;;;16.00;99.90;;;;;;5052497;28;21013;-53
2022/07/01 03:33:31;;;;;;;3.87;3.50;;;16.00;99.90;;;;;;5057295;28;20491;-53
2022/07/01 03:35:59;;;;;;;3.23;3.00;;;16.00;99.90;;;;;;5053588;28;20490;-53
2022/07/01 03:38:26;;;;;;;8.27;3.90;;;16.00;99.90;;;;;;5055139;28;20479;-53
2022/07/01 03:40:52;;;;;;;5.27;2.77;;;15.90;99.90;;;;;;5052075;28;20486;-53
2022/07/01 03:43:19;;;;;;;3.70;3.40;;;15.90;99.90;;;;;;5054945;28;20577;-53
2022/07/01 03:45:46;;;;;;;7.20;3.00;;;15.90;99.90;;;;;;5058492;28;20836;-53
2022/07/01 03:48:13;;;;;;;4.30;3.67;;;15.80;99.90;;;;;;5055789;28;20964;-53
2022/07/01 03:50:40;;;;;;;3.03;2.23;;;15.70;99.90;;;;;;4997129;28;1052076;-53
2022/07/01 03:55:52;;;;;;;3.60;3.30;;;15.70;99.90;;;;;;5037953;28;20624;-53
2022/07/01 03:58:18;;;;;;;5.30;3.77;;;15.60;99.90;;;;;;5047520;28;20953;-53
2022/07/01 04:00:45;;;;;;;2.70;2.50;;;15.50;99.90;;;;;;5050641;28;20484;-54
2022/07/01 04:03:12;;;;;;;6.03;3.67;;;15.50;99.90;;;;;;5047210;28;20953;-54
2022/07/01 04:05:40;;;;;;;10.30;3.00;;;15.50;99.90;;;;;;5056954;28;20502;-53
2022/07/01 04:08:10;;;;;;;4.40;2.83;;;15.40;99.90;;;;;;5056371;28;20574;-53
2022/07/01 04:10:38;;;;;;;4.90;3.33;;;15.40;99.90;;;;;;5056842;28;21098;-53
2022/07/01 04:13:05;;;;;;;3.20;2.90;;;15.40;99.90;;;;;;5059634;28;20482;-53
2022/07/01 04:15:32;;;;;;;4.97;2.60;;;15.50;99.90;;;;;;5056124;28;20497;-53
2022/07/01 04:17:59;;;;;;;2.83;2.37;;;15.50;99.90;;;;;;5059459;28;20487;-53
2022/07/01 04:20:26;;;;;;;6.03;2.67;;;15.50;99.90;;;;;;5052275;28;20491;-53
2022/07/01 04:22:51;;;;;;;3.90;2.73;;;15.50;99.90;;;;;;5049866;28;20877;-53
2022/07/01 04:25:19;;;;;;;6.20;3.00;;;15.30;99.90;;;;;;5048533;28;20483;-53
2022/07/01 04:27:46;;;;;;;3.80;2.47;;;15.30;99.90;;;;;;5055268;28;20634;-53
2022/07/01 04:30:14;;;;;;;3.00;2.80;;;15.20;99.90;;;;;;5057271;28;20482;-53
2022/07/01 04:32:41;;;;;;;3.90;1.83;;;15.10;99.90;;;;;;5058025;28;20479;-53
2022/07/01 04:35:11;;;;;;;3.70;3.40;;;15.10;99.90;;;;;;5050662;28;20486;-53
2022/07/01 04:37:38;;;;;;;4.17;2.50;;;15.10;99.90;;;;;;5056970;28;20931;-53
2022/07/01 04:40:06;;;;;;;2.70;2.50;;;15.20;99.90;;;;;;5057612;28;20858;-55
2022/07/01 04:42:33;;;;;;;3.37;2.73;;;15.20;99.90;;;;;;5060979;28;20494;-53
2022/07/01 04:45:00;;;;;;;2.97;2.43;;;15.20;99.90;;;;;;5056708;28;20494;-53
2022/07/01 04:47:32;;;;;;;2.93;2.63;;;15.10;99.90;;;;;;5048527;28;21182;-53
2022/07/01 04:50:01;;;;;;;3.90;2.67;;;15.20;99.90;;;;;;5057238;28;20478;-53
2022/07/01 04:52:28;;;;;;;7.23;3.10;;;15.20;99.90;;;;;;5048443;28;20533;-53
2022/07/01 04:54:54;;;;;;;3.90;3.07;;;15.20;99.90;;;;;;5058411;28;20482;-53
2022/07/01 04:57:22;;;;;;;5.57;3.87;;;15.20;99.90;;;;;;5053685;28;20474;-53
2022/07/01 04:59:50;;;;;;;4.93;2.70;;;15.20;99.90;;;;;;5058616;28;20486;-53
2022/07/01 05:02:16;;;;;;;6.53;3.10;;;15.30;99.90;;;;;;5058841;28;20478;-53
2022/07/01 05:04:43;;;;;;;2.67;2.47;;;15.40;99.90;;;;;;5056024;28;20479;-53
2022/07/01 05:07:27;;;;;;;3.77;3.00;;;15.50;99.90;;;;;;5048241;28;20469;-53
2022/07/01 05:09:55;;;;;;;8.60;3.00;;;15.40;99.90;;;;;;5051969;28;20474;-52
2022/07/01 05:12:21;;;;;;;4.70;2.57;;;15.40;99.90;;;;;;5056132;28;20514;-53
2022/07/01 05:14:50;;;;;;;7.00;2.60;;;15.40;99.90;;;;;;5057996;28;20483;-52
2022/07/01 05:17:16;;;;;;;4.70;3.77;;;15.40;99.90;;;;;;5057681;28;20467;-52
2022/07/01 05:22:28;;;;;;;4.07;2.70;;;15.60;99.90;;;;;;5054775;28;20486;-51
2022/07/01 05:24:55;;;;;;;5.33;2.77;;;15.50;99.90;;;;;;5059453;28;20492;-51
2022/07/01 05:27:22;;;;;;;4.40;2.80;;;15.50;99.90;;;;;;5054276;28;20479;-49
2022/07/01 05:29:50;;;;;;;2.50;2.20;;;15.50;99.90;;;;;;5055188;28;20540;-51
2022/07/01 05:32:16;;;;;;;8.80;3.77;;;15.50;99.90;;;;;;5028185;28;20478;-51
2022/07/01 05:34:44;;;;;;;4.30;3.00;;;15.40;99.90;;;;;;5049709;28;20481;-50
2022/07/01 05:37:11;;;;;;;4.43;3.60;;;15.50;99.90;;;;;;5049656;28;20471;-51
2022/07/01 05:39:37;;;;;;;6.63;3.27;;;15.50;99.90;;;;;;5052140;28;20557;-51
2022/07/01 05:42:05;;;;;;;5.00;3.70;;;15.40;99.90;;;;;;5051132;28;20486;-50
2022/07/01 05:44:31;;;;;;;3.47;2.37;;;15.50;99.90;;;;;;5051395;28;20854;-51
2022/07/01 05:46:59;;;;;;;5.13;2.53;;;15.60;99.90;;;;;;5058232;28;20478;-49
2022/07/01 05:49:26;;;;;;;3.00;2.67;;;15.80;99.90;;;;;;5060931;28;20490;-51
2022/07/01 05:51:53;;;;;;;3.57;3.20;;;15.80;99.90;;;;;;5060594;28;20479;-51
2022/07/01 05:54:19;;;;;;;7.40;3.03;;;15.90;99.90;;;;;;5056531;28;20995;-49
2022/07/01 05:56:47;;;;;;;3.50;2.20;;;15.80;99.90;;;;;;5058333;28;20948;-49
2022/07/01 05:59:14;;;;;;;3.63;2.83;;;15.80;99.90;;;;;;5050504;28;20482;-49
2022/07/01 06:01:40;;;;;;;5.27;2.83;;;15.70;99.90;;;;;;5056585;28;20482;-49
2022/07/01 06:04:08;;;;;;;3.57;2.83;;;15.80;99.90;;;;;;5054903;28;21156;-49
2022/07/01 06:06:35;;;;;;;2.20;1.80;;;15.90;99.90;;;;;;5055119;28;20494;-50
2022/07/01 06:09:02;;;;;;;3.03;2.73;;;15.90;99.90;;;;;;5055030;28;20491;-49
2022/07/01 06:11:28;;;;;;;3.70;2.60;;;16.00;99.90;;;;;;5055142;28;20503;-50
2022/07/01 06:13:55;;;;;;;4.83;2.93;;;16.10;99.90;;;;;;5061305;28;20999;-50
2022/07/01 06:16:21;;;;;;;8.50;3.47;;;16.20;99.90;;;;;;5052537;28;20514;-52
2022/07/01 06:18:48;;;;;;;6.93;3.87;;;16.30;99.90;;;;;;5056370;28;20486;-49
2022/07/01 06:21:16;;;;;;;3.40;3.10;;;16.40;99.90;;;;;;5054986;28;20470;-50
2022/07/01 06:23:45;;;;;;;3.77;2.50;;;16.40;99.90;;;;;;5060455;28;20504;-50
2022/07/01 06:26:12;;;;;;;3.00;2.70;;;16.30;99.90;;;;;;5055570;28;20475;-50
2022/07/01 06:28:39;;;;;;;4.17;1.97;;;16.30;99.90;;;;;;5055094;28;20506;-49
2022/07/01 06:31:05;;;;;;;7.00;2.53;;;16.20;99.90;;;;;;5053042;28;20482;-51
2022/07/01 06:33:32;;;;;;;5.70;1.93;;;16.20;99.90;;;;;;5057336;28;21007;-49
2022/07/01 06:35:59;;;;;;;6.60;2.50;;;16.30;99.90;;;;;;5055794;28;20500;-49
2022/07/01 06:38:27;;;;;;;2.10;1.73;;;16.20;99.90;;;;;;5054980;28;20475;-50
2022/07/01 06:43:38;;;;;;;3.77;1.87;;;16.20;99.90;;;;;;5052907;28;20567;-51
2022/07/01 06:46:05;;;;;;;5.07;2.37;;;16.20;99.90;;;;;;5047899;28;20486;-49
2022/07/01 06:48:32;;;;;;;3.53;2.30;;;16.10;99.90;;;;;;5059246;28;20803;-51
2022/07/01 06:50:59;;;;;;;10.77;2.47;;;16.20;99.90;;;;;;5060365;28;20558;-51
2022/07/01 06:53:27;;;;;;;2.10;1.70;;;16.20;99.90;;;;;;5058205;28;20489;-49
2022/07/01 06:55:54;;;;;;;2.33;2.13;;;16.20;99.90;;;;;;5056701;28;20485;-50
2022/07/01 06:58:21;;;;;;;3.60;2.03;;;16.30;99.90;;;;;;5058788;28;20490;-50
2022/07/01 07:00:47;;;;;;;2.20;1.90;;;16.20;99.90;;;;;;5059120;28;20479;-50
2022/07/01 07:03:14;;;;;;;3.30;2.07;;;16.40;99.90;;;;;;5060851;28;20819;-50
2022/07/01 07:05:41;;;;;;;5.90;1.97;;;16.50;99.90;;;;;;5055123;28;20483;-50
2022/07/01 07:08:08;;;;;;;2.30;2.03;;;16.50;99.90;;;;;;5059342;28;20487;-50
2022/07/01 07:10:36;;;;;;;2.30;1.83;;;16.40;99.90;;;;;;5060201;28;20490;-49
2022/07/01 07:13:02;;;;;;;4.17;2.60;;;16.50;99.90;;;;;;5061012;28;21019;-49
2022/07/01 07:15:29;;;;;;;3.13;2.30;;;16.30;99.90;;;;;;5051645;28;20491;-49
2022/07/01 07:17:57;;;;;;;2.70;2.13;;;16.50;99.90;;;;;;5049104;28;20498;-50
2022/07/01 07:20:24;;;;;;;3.03;2.40;;;16.60;99.90;;;;;;5051302;28;20540;-50
2022/07/01 07:22:50;;;;;;;2.73;2.17;;;16.80;99.90;;;;;;5059317;28;20486;-50
2022/07/01 07:25:17;;;;;;;4.63;2.40;;;16.90;99.90;;;;;;5058134;28;20482;-50
2022/07/01 07:27:46;;;;;;;3.43;2.30;;;17.10;99.90;;;;;;5056440;28;20582;-50
2022/07/01 07:30:13;;;;;;;2.70;2.50;;;17.10;99.90;;;;;;5044398;28;21222;-54
2022/07/01 07:32:40;;;;;;;2.47;2.27;;;17.20;99.90;;;;;;5058044;28;20480;-50
2022/07/01 07:35:07;;;;;;;6.20;2.90;;;17.20;99.90;;;;;;5053318;28;20521;-51
2022/07/01 07:37:34;;;;;;;5.60;1.90;;;17.30;99.90;;;;;;5050143;28;21066;-50
2022/07/01 07:40:01;;;;;;;3.27;2.30;;;17.40;99.90;;;;;;5062747;28;20490;-50
2022/07/01 07:42:27;;;;;;;6.43;2.27;;;17.40;99.90;;;;;;5061255;28;20486;-50
2022/07/01 07:44:56;;;;;;;2.50;2.30;;;17.50;99.90;;;;;;5063348;28;20482;-50
2022/07/01 07:47:22;;;;;;;2.67;2.47;;;17.50;99.90;;;;;;5028654;28;20484;-52
2022/07/01 07:49:49;;;;;;;5.83;2.80;;;17.50;99.70;;;;;;5057393;28;20731;-50
2022/07/01 07:52:16;;;;;;;3.77;3.00;;;17.60;99.70;;;;;;5056000;28;20475;-50
2022/07/01 07:54:42;;;;;;;4.33;2.17;;;17.50;99.60;;;;;;5057155;28;20747;-50
2022/07/01 07:57:09;;;;;;;4.20;2.20;;;17.60;99.00;;;;;;5057389;28;20490;-52
2022/07/01 07:59:36;;;;;;;2.37;1.93;;;17.70;99.20;;;;;;5059526;28;20483;-51
2022/07/01 08:02:04;;;;;;;2.20;1.83;;;17.80;99.60;;;;;;5057875;28;20482;-51
2022/07/01 08:04:31;;;;;;;2.40;2.03;;;17.70;99.10;;;;;;5055261;28;20479;-50
2022/07/01 08:06:58;;;;;;;4.67;2.20;;;17.80;99.50;;;;;;5043665;28;21068;-50
2022/07/01 08:09:25;;;;;;;4.00;2.23;;;17.70;99.60;;;;;;5055696;28;20491;-51
2022/07/01 08:11:52;;;;;;;6.10;2.37;;;17.80;99.30;;;;;;5055467;28;20945;-50
2022/07/01 08:14:18;;;;;;;2.70;2.30;;;17.90;99.40;;;;;;5046728;28;20482;-51
2022/07/01 08:16:45;;;;;;;3.30;1.87;;;18.00;99.20;;;;;;5056176;28;20487;-50
2022/07/01 08:19:13;;;;;;;5.10;2.13;;;18.20;99.10;;;;;;5060780;28;20486;-51
2022/07/01 08:21:40;;;;;;;2.30;1.90;;;18.30;99.00;;;;;;5056676;28;20532;-51
2022/07/01 08:24:07;;;;;;;2.87;2.57;;;18.30;98.40;;;;;;5056221;28;20475;-51
2022/07/01 08:26:33;;;;;;;3.33;1.97;;;18.20;98.10;;;;;;5055370;28;20597;-51
2022/07/01 08:29:00;;;;;;;3.00;2.50;;;18.20;98.80;;;;;;5056383;28;20475;-50
2022/07/01 08:31:27;;;;;;;5.33;2.00;;;18.20;98.90;;;;;;5055766;28;20479;-50
2022/07/01 08:33:53;;;;;;;5.43;2.07;;;18.20;98.00;;;;;;5060867;28;21052;-50
2022/07/01 08:36:22;;;;;;;7.50;2.67;;;18.20;98.70;;;;;;5055376;28;21036;-51
2022/07/01 08:38:49;;;;;;;2.30;2.00;;;18.30;97.50;;;;;;5057012;28;20483;-51
2022/07/01 08:41:17;;;;;;;5.43;2.10;;;18.20;96.50;;;;;;5055757;28;20557;-50
2022/07/01 08:43:44;;;;;;;3.60;1.90;;;18.20;96.50;;;;;;5056808;28;20478;-50
2022/07/01 08:46:11;;;;;;;2.13;1.77;;;18.20;96.80;;;;;;5055235;28;20549;-52
2022/07/01 08:48:41;;;;;;;8.70;1.80;;;18.30;96.50;;;;;;5052637;28;20483;-50
2022/07/01 08:51:08;;;;;;;1.90;1.70;;;18.60;96.90;;;;;;5054767;28;20566;-50
2022/07/01 08:53:36;;;;;;;2.00;1.67;;;19.00;99.50;;;;;;5052359;28;21025;-57
2022/07/01 08:58:49;;;;;;;8.23;1.60;;;19.50;95.60;;;;;;5054395;28;20543;-50
2022/07/01 09:01:20;;;;;;;2.40;1.60;;;19.70;97.60;;;;;;5057764;28;20485;-50
2022/07/01 09:03:48;;;;;;;2.60;1.60;;;19.80;95.60;;;;;;5057412;28;20483;-51
2022/07/01 09:06:17;;;;;;;2.87;1.50;;;19.80;95.40;;;;;;5041983;28;20483;-50
2022/07/01 09:08:46;;;;;;;3.10;1.27;;;19.80;95.10;;;;;;5053550;28;20984;-51
2022/07/01 09:11:15;;;;;;;2.00;1.63;;;19.70;93.00;;;;;;5022573;28;20514;-50
2022/07/01 09:13:42;;;;;;;11.60;1.63;;;19.60;93.60;;;;;;5047230;28;20478;-50
2022/07/01 09:16:12;;;;;;;1.90;1.50;;;19.50;92.50;;;;;;5046182;28;20564;-50
2022/07/01 09:18:39;;;;;;;3.80;1.60;;;19.50;92.40;;;;;;5050058;28;20481;-51
2022/07/01 09:21:09;;;;;;;2.67;1.73;;;19.30;93.60;;;;;;5059886;28;20478;-51
2022/07/01 09:23:36;;;;;;;2.00;1.20;;;19.50;94.40;;;;;;5049295;28;20598;-51
2022/07/01 09:26:04;;;;;;;3.50;1.90;;;19.60;94.20;;;;;;5053475;28;20871;-51
2022/07/01 09:28:30;;;;;;;3.93;1.33;;;20.00;92.60;;;;;;5060146;28;21259;-50
2022/07/01 09:30:58;;;;;;;2.57;1.43;;;20.00;92.60;;;;;;5028558;28;21016;-51
2022/07/01 09:33:26;;;;;;;2.87;1.23;;;20.30;93.70;;;;;;5056522;28;20857;-52
2022/07/01 09:35:54;;;;;;;6.90;1.43;;;20.40;93.10;;;;;;5037065;28;20488;-51
2022/07/01 09:38:22;;;;;;;2.10;1.30;;;20.50;92.60;;;;;;5046645;28;20507;-52
2022/07/01 09:40:52;;;;;;;2.67;1.37;;;20.50;91.80;;;;;;5048857;28;20540;-51
2022/07/01 09:43:22;;;;;;;4.20;1.33;;;20.40;91.00;;;;;;5058822;28;20487;-52
2022/07/01 09:45:54;;;;;;;2.73;1.20;;;20.50;91.80;;;;;;5058089;28;20985;-52
2022/07/01 09:48:21;;;;;;;2.27;1.20;;;20.40;91.90;;;;;;5061746;28;21025;-51
2022/07/01 09:50:48;;;;;;;2.83;1.50;;;20.30;91.90;;;;;;5055543;28;20838;-51
2022/07/01 09:53:15;;;;;;;1.73;1.17;;;20.30;91.00;;;;;;5050818;28;20485;-51
2022/07/01 09:55:42;;;;;;;2.57;1.53;;;20.50;92.20;;;;;;5059831;28;20672;-52
2022/07/01 09:58:10;;;;;;;1.97;1.50;;;20.50;91.70;;;;;;5057380;28;20574;-51
2022/07/01 10:00:38;;;;;;;3.80;1.57;;;20.70;92.40;;;;;;5062056;28;20936;-51
2022/07/01 10:03:06;;;;;;;4.63;1.23;;;21.00;92.30;;;;;;5060713;28;20470;-53
2022/07/01 10:05:39;;;;;;;2.83;1.10;;;21.00;92.20;;;;;;5063216;28;20485;-50
2022/07/01 10:08:27;;;;;;;2.73;1.20;;;21.40;90.50;;;;;;5060353;28;20548;-51
2022/07/01 10:11:07;;;;;;;1.60;0.90;;;21.50;89.40;;;;;;5060294;28;20503;-51
2022/07/01 10:13:36;;;;;;;3.60;1.30;;;21.50;88.40;;;;;;5061853;28;20474;-55
2022/07/01 10:16:05;;;;;;;1.90;1.13;;;21.40;88.10;;;;;;5028374;28;20530;-51
2022/07/01 10:18:31;;;;;;;3.13;1.27;;;21.30;87.50;;;;;;5056456;28;20500;-50
2022/07/01 10:20:59;;;;;;;4.37;1.50;;;21.30;89.20;;;;;;5065237;28;20484;-50
2022/07/01 10:23:37;;;;;;;4.20;1.00;;;21.30;88.50;;;;;;5058849;28;20476;-50
2022/07/01 10:26:07;;;;;;;2.20;1.33;;;21.30;90.10;;;;;;5036284;28;20491;-50
2022/07/01 10:28:43;;;;;;;1.80;1.10;;;21.40;90.50;;;;;;5038117;28;20473;-51
2022/07/01 10:31:15;;;;;;;2.10;1.07;;;21.70;92.10;;;;;;5067743;28;20976;-51
2022/07/01 10:33:45;;;;;;;3.53;1.43;;;22.00;89.10;;;;;;5066190;28;20484;-51
2022/07/01 10:36:16;;;;;;;3.80;1.37;;;22.00;90.00;;;;;;5061689;28;20473;-52
2022/07/01 10:39:14;;;;;;;2.00;1.23;;;22.30;91.80;;;;;;5061690;28;20496;-51
2022/07/01 10:41:43;;;;;;;1.90;1.00;;;22.30;87.90;;;;;;5061859;28;20546;-51
2022/07/01 10:44:11;;;;;;;2.57;1.47;;;22.50;89.20;;;;;;5055712;28;20897;-51
2022/07/01 10:46:43;;;;;;;3.60;1.30;;;22.50;84.90;;;;;;5049155;28;20475;-52
2022/07/01 10:49:12;;;;;;;2.30;1.10;;;22.40;84.30;;;;;;5064998;28;20619;-52
2022/07/01 10:51:48;;;;;;;2.00;1.20;;;22.40;84.80;;;;;;5067287;28;20815;-51
2022/07/01 10:54:47;;;;;;;1.80;1.20;;;22.20;86.20;;;;;;5058340;28;20564;-50
2022/07/01 10:57:32;;;;;;;2.73;1.20;;;22.20;85.30;;;;;;5043945;28;20608;-51
2022/07/01 11:00:34;;;;;;;2.00;1.63;;;22.10;82.40;;;;;;5065869;28;20951;-50
2022/07/01 11:03:23;;;;;;;2.80;1.10;;;22.30;87.40;;;;;;5043756;28;20476;-50
2022/07/01 11:05:53;;;;;;;2.67;1.00;;;22.30;86.00;;;;;;5057046;28;20962;-50
2022/07/01 11:08:20;;;;;;;4.30;1.27;;;22.60;86.10;;;;;;5053084;28;20489;-50
2022/07/01 11:10:51;;;;;;;1.90;1.23;;;22.60;87.20;;;;;;5060079;28;21638;-51
2022/07/01 11:13:19;;;;;;;2.40;1.10;;;23.00;84.10;;;;;;5060736;28;21021;-51
2022/07/01 11:15:48;;;;;;;2.10;1.00;;;23.10;82.50;;;;;;5054778;28;21018;-51
2022/07/01 11:18:16;;;;;;;2.83;1.00;;;23.20;82.50;;;;;;5060621;28;20764;-51
2022/07/01 11:20:44;;;;;;;2.57;1.00;;;23.30;85.10;;;;;;5057875;28;20567;-51
2022/07/01 11:23:11;;;;;;;1.90;1.20;;;23.40;81.90;;;;;;5062563;28;20635;-51
2022/07/01 11:25:38;;;;;;;2.53;1.30;;;23.50;82.10;;;;;;5064665;28;21036;-52
2022/07/01 11:28:04;;;;;;;2.10;1.37;;;23.60;78.40;;;;;;5062659;28;20453;-52
2022/07/01 11:30:31;;;;;;;3.43;1.17;;;23.50;84.10;;;;;;5066347;28;20481;-50
2022/07/01 11:32:59;;;;;;;2.73;1.07;;;23.80;82.40;;;;;;5062821;28;20482;-50
2022/07/01 11:41:01;;;;;;;2.07;0.87;;;24.10;77.50;;;;;;5058292;28;20480;-50
2022/07/01 11:43:30;;;;;;;2.77;0.80;;;24.40;77.70;;;;;;5057600;28;20496;-51
2022/07/01 11:46:00;;;;;;;4.60;1.10;;;24.50;77.90;;;;;;5055356;28;20501;-53
2022/07/01 11:48:31;;;;;;;1.67;1.03;;;24.50;78.30;;;;;;5064341;28;20978;-49
2022/07/01 11:50:59;;;;;;;3.03;1.10;;;24.50;75.30;;;;;;5053284;28;20484;-51
2022/07/01 11:53:28;;;;;;;2.67;0.90;;;24.10;71.80;;;;;;5062702;28;20850;-50
2022/07/01 11:55:55;;;;;;;1.70;0.90;;;24.00;70.80;;;;;;5060655;28;20481;-50
2022/07/01 11:58:21;;;;;;;2.03;1.07;;;23.70;75.60;;;;;;5063385;28;21230;-50
2022/07/01 12:00:48;;;;;;;1.80;1.10;;;23.70;78.60;;;;;;5063924;28;21070;-52
2022/07/01 12:03:30;;;;;;;2.80;1.00;;;24.10;80.50;;;;;;5060076;28;20488;-50
2022/07/01 12:05:57;;;;;;;5.43;1.27;;;24.20;77.20;;;;;;5056019;28;20560;-50
2022/07/01 12:08:24;;;;;;;3.03;1.23;;;24.00;75.30;;;;;;5061982;28;20509;-50
2022/07/01 12:10:52;;;;;;;2.43;0.97;;;24.00;74.10;;;;;;5060908;28;20509;-50
2022/07/01 12:13:22;;;;;;;1.80;1.07;;;23.70;72.50;;;;;;5058670;28;20485;-51
2022/07/01 12:15:49;;;;;;;2.57;1.00;;;23.20;73.70;;;;;;5050852;28;21074;-50
2022/07/01 12:18:16;;;;;;;2.67;1.20;;;23.20;74.60;;;;;;5056459;28;21071;-51
2022/07/01 12:20:49;;;;;;;1.70;0.90;;;23.00;77.80;;;;;;5046045;28;20493;-52
2022/07/01 12:23:16;;;;;;;1.80;0.80;;;22.90;73.40;;;;;;5057014;28;20832;-50
2022/07/01 12:25:48;;;;;;;2.97;0.90;;;22.80;75.80;;;;;;5063040;28;20569;-50
2022/07/01 12:28:27;;;;;;;1.87;1.13;;;22.70;74.30;;;;;;5060889;28;20491;-50
2022/07/01 12:31:01;;;;;;;3.67;0.90;;;22.60;73.90;;;;;;5059116;28;21012;-49
2022/07/01 12:33:29;;;;;;;2.60;0.83;;;22.90;73.60;;;;;;5059462;28;20477;-50
2022/07/01 12:35:56;;;;;;;2.20;0.80;;;23.10;70.80;;;;;;5053708;28;21110;-50
2022/07/01 12:38:22;;;;;;;1.70;0.80;;;23.20;72.20;;;;;;5061270;28;21302;-50
2022/07/01 12:40:49;;;;;;;2.17;1.00;;;23.30;71.90;;;;;;5062510;28;21070;-51
2022/07/01 12:43:29;;;;;;;1.90;0.93;;;23.20;74.10;;;;;;5058481;28;20488;-50
2022/07/01 12:45:57;;;;;;;1.80;1.00;;;23.20;75.10;;;;;;5059928;28;20496;-49
2022/07/01 12:48:24;;;;;;;2.00;1.20;;;23.10;75.90;;;;;;5063574;28;20474;-49
2022/07/01 12:50:54;;;;;;;2.00;0.97;;;23.10;75.10;;;;;;5062035;28;20465;-51
2022/07/01 12:53:22;;;;;;;2.87;1.00;;;22.80;72.80;;;;;;5057296;28;20479;-50
2022/07/01 12:55:50;;;;;;;2.73;0.93;;;22.70;73.50;;;;;;5061594;28;20554;-50
2022/07/01 12:58:18;;;;;;;3.13;0.97;;;22.70;74.20;;;;;;5054005;28;20483;-50
2022/07/01 13:00:48;;;;;;;1.60;0.73;;;22.60;75.10;;;;;;5060685;28;20522;-51
2022/07/01 13:03:15;;;;;;;1.60;0.80;;;22.50;75.30;;;;;;5048487;28;20493;-51
2022/07/01 13:05:42;;;;;;;2.97;1.10;;;22.80;74.70;;;;;;5063430;28;20970;-50
2022/07/01 13:08:10;;;;;;;1.73;0.90;;;23.00;76.90;;;;;;5060115;28;20492;-50
2022/07/01 13:10:38;;;;;;;1.60;0.80;;;23.00;71.60;;;;;;5050334;28;20746;-50